sensor_id;sensor_type;location;lat;lon;timestamp;pressure;altitude;pressure_sealevel;temperature;humidity
68873;BME280;55907;50.806;12.882;2023-05-01T00:00:22;977.0;;;6.9;62.6
68873;BME280;55907;50.806;12.882;2023-05-01T00:03:23;976.9;;;6.9;63.9
68873;BME280;55907;50.806;12.882;2023-05-01T00:06:25;976.9;;;6.8;64.2
68873;BME280;55907;50.806;12.882;2023-05-01T00:09:27;976.8;;;6.7;63.3
68873;BME280;55907;50.806;12.882;2023-05-01T00:12:28;976.8;;;6.6;64.3
68873;BME280;55907;50.806;12.882;2023-05-01T00:15:30;976.8;;;6.5;66.1
68873;BME280;55907;50.806;12.882;2023-05-01T00:18:31;976.7;;;6.4;66.5
68873;BME280;55907;50.806;12.882;2023-05-01T00:21:33;976.7;;;6.4;65.1
68873;BME280;55907;50.806;12.882;2023-05-01T00:24:35;976.6;;;6.4;65.2
68873;BME280;55907;50.806;12.882;2023-05-01T00:27:36;976.6;;;6.4;65.5
68873;BME280;55907;50.806;12.882;2023-05-01T00:30:37;976.6;;;6.3;67.3
68873;BME280;55907;50.806;12.882;2023-05-01T00:33:39;976.6;;;6.3;66.7
68873;BME280;55907;50.806;12.882;2023-05-01T00:36:40;976.6;;;6.3;66.9
68873;BME280;55907;50.806;12.882;2023-05-01T00:39:42;976.6;;;6.3;65.1
68873;BME280;55907;50.806;12.882;2023-05-01T00:42:43;976.6;;;6.3;65.7
68873;BME280;55907;50.806;12.882;2023-05-01T00:45:45;976.5;;;6.3;65.3
68873;BME280;55907;50.806;12.882;2023-05-01T00:48:46;976.5;;;6.3;65.9
68873;BME280;55907;50.806;12.882;2023-05-01T00:51:50;976.5;;;6.3;66.3
68873;BME280;55907;50.806;12.882;2023-05-01T00:54:49;976.4;;;6.3;65.3
68873;BME280;55907;50.806;12.882;2023-05-01T00:57:51;976.4;;;6.3;65.5
68873;BME280;55907;50.806;12.882;2023-05-01T01:00:53;976.4;;;6.3;65.3
68873;BME280;55907;50.806;12.882;2023-05-01T01:03:54;976.4;;;6.3;65.2
68873;BME280;55907;50.806;12.882;2023-05-01T01:07:02;976.3;;;6.2;65.6
68873;BME280;55907;50.806;12.882;2023-05-01T01:10:02;976.2;;;6.2;65.4
68873;BME280;55907;50.806;12.882;2023-05-01T01:13:06;976.2;;;6.3;64.7
68873;BME280;55907;50.806;12.882;2023-05-01T01:16:04;976.2;;;6.2;64.9
68873;BME280;55907;50.806;12.882;2023-05-01T01:19:10;976.1;;;6.2;64.8
68873;BME280;55907;50.806;12.882;2023-05-01T01:22:07;976.1;;;6.3;64.8
68873;BME280;55907;50.806;12.882;2023-05-01T01:25:21;976.1;;;6.3;64.9
68873;BME280;55907;50.806;12.882;2023-05-01T01:28:16;976.1;;;6.3;64.8
68873;BME280;55907;50.806;12.882;2023-05-01T01:31:10;976.1;;;6.3;64.7
68873;BME280;55907;50.806;12.882;2023-05-01T01:34:12;976.1;;;6.3;65.0
68873;BME280;55907;50.806;12.882;2023-05-01T01:37:16;976.1;;;6.2;66.5
68873;BME280;55907;50.806;12.882;2023-05-01T01:40:14;976.1;;;6.1;67.1
68873;BME280;55907;50.806;12.882;2023-05-01T01:43:17;976.0;;;6.0;66.9
68873;BME280;55907;50.806;12.882;2023-05-01T01:46:16;976.0;;;5.9;67.7
68873;BME280;55907;50.806;12.882;2023-05-01T01:49:19;976.0;;;5.8;68.5
68873;BME280;55907;50.806;12.882;2023-05-01T01:52:19;976.0;;;5.7;68.7
68873;BME280;55907;50.806;12.882;2023-05-01T01:55:21;976.0;;;5.6;69.1
68873;BME280;55907;50.806;12.882;2023-05-01T01:58:22;976.0;;;5.4;69.5
68873;BME280;55907;50.806;12.882;2023-05-01T02:01:24;975.9;;;5.3;69.3
68873;BME280;55907;50.806;12.882;2023-05-01T02:04:26;975.9;;;5.2;70.4
68873;BME280;55907;50.806;12.882;2023-05-01T02:07:27;975.9;;;5.2;70.7
68873;BME280;55907;50.806;12.882;2023-05-01T02:10:28;975.8;;;5.1;71.5
68873;BME280;55907;50.806;12.882;2023-05-01T02:13:30;975.8;;;5.1;71.7
68873;BME280;55907;50.806;12.882;2023-05-01T02:16:31;975.7;;;5.1;73.2
68873;BME280;55907;50.806;12.882;2023-05-01T02:19:33;975.6;;;5.1;72.6
68873;BME280;55907;50.806;12.882;2023-05-01T02:22:34;975.5;;;5.1;73.1
68873;BME280;55907;50.806;12.882;2023-05-01T02:25:37;975.5;;;5.2;71.9
68873;BME280;55907;50.806;12.882;2023-05-01T02:28:37;975.5;;;5.2;72.1
68873;BME280;55907;50.806;12.882;2023-05-01T02:31:38;975.5;;;5.1;72.4
68873;BME280;55907;50.806;12.882;2023-05-01T02:34:40;975.4;;;5.2;71.9
68873;BME280;55907;50.806;12.882;2023-05-01T02:37:42;975.4;;;5.2;72.3
68873;BME280;55907;50.806;12.882;2023-05-01T02:40:45;975.4;;;5.2;71.7
68873;BME280;55907;50.806;12.882;2023-05-01T02:43:47;975.3;;;5.1;72.6
68873;BME280;55907;50.806;12.882;2023-05-01T02:46:46;975.3;;;5.1;71.5
68873;BME280;55907;50.806;12.882;2023-05-01T02:49:50;975.2;;;5.1;72.2
68873;BME280;55907;50.806;12.882;2023-05-01T02:52:50;975.2;;;5.1;71.4
68873;BME280;55907;50.806;12.882;2023-05-01T02:55:51;975.2;;;5.2;71.5
68873;BME280;55907;50.806;12.882;2023-05-01T02:58:52;975.1;;;5.2;70.5
68873;BME280;55907;50.806;12.882;2023-05-01T03:01:54;975.2;;;5.2;71.5
68873;BME280;55907;50.806;12.882;2023-05-01T03:04:55;975.1;;;5.2;70.5
68873;BME280;55907;50.806;12.882;2023-05-01T03:07:57;975.1;;;5.2;70.8
68873;BME280;55907;50.806;12.882;2023-05-01T03:10:58;975.1;;;5.2;71.0
68873;BME280;55907;50.806;12.882;2023-05-01T03:14:00;975.1;;;5.2;70.7
68873;BME280;55907;50.806;12.882;2023-05-01T03:17:02;975.1;;;5.2;70.7
68873;BME280;55907;50.806;12.882;2023-05-01T03:20:04;975.0;;;5.3;69.4
68873;BME280;55907;50.806;12.882;2023-05-01T03:23:05;974.9;;;5.3;69.5
68873;BME280;55907;50.806;12.882;2023-05-01T03:26:06;974.8;;;5.3;69.3
68873;BME280;55907;50.806;12.882;2023-05-01T03:29:08;974.7;;;5.4;69.2
68873;BME280;55907;50.806;12.882;2023-05-01T03:32:09;974.7;;;5.5;68.9
68873;BME280;55907;50.806;12.882;2023-05-01T03:35:11;974.7;;;5.5;68.4
68873;BME280;55907;50.806;12.882;2023-05-01T03:38:12;974.7;;;5.5;68.1
68873;BME280;55907;50.806;12.882;2023-05-01T03:41:14;974.6;;;5.5;68.3
68873;BME280;55907;50.806;12.882;2023-05-01T03:44:15;974.6;;;5.5;69.1
68873;BME280;55907;50.806;12.882;2023-05-01T03:47:17;974.6;;;5.4;69.2
68873;BME280;55907;50.806;12.882;2023-05-01T03:50:18;974.6;;;5.3;68.8
68873;BME280;55907;50.806;12.882;2023-05-01T03:53:20;974.6;;;5.3;69.0
68873;BME280;55907;50.806;12.882;2023-05-01T03:56:21;974.6;;;5.3;70.0
68873;BME280;55907;50.806;12.882;2023-05-01T03:59:23;974.6;;;5.2;71.4
68873;BME280;55907;50.806;12.882;2023-05-01T04:02:24;974.6;;;5.1;71.8
68873;BME280;55907;50.806;12.882;2023-05-01T04:05:26;974.7;;;5.0;unknown
68873;BME280;55907;50.806;12.882;2023-05-01T04:08:28;974.7;;;4.9;73.4
68873;BME280;55907;50.806;12.882;2023-05-01T04:11:29;974.6;;;4.8;74.5
68873;BME280;55907;50.806;12.882;2023-05-01T04:14:31;974.8;;;4.8;75.1
68873;BME280;55907;50.806;12.882;2023-05-01T04:17:34;974.8;;;4.8;75.6
68873;BME280;55907;50.806;12.882;2023-05-01T04:20:34;974.7;;;4.8;75.6
68873;BME280;55907;50.806;12.882;2023-05-01T04:23:35;974.7;;;4.9;76.4
68873;BME280;55907;50.806;12.882;2023-05-01T04:26:37;974.8;;;5.0;75.5
68873;BME280;55907;50.806;12.882;2023-05-01T04:29:38;974.7;;;5.1;74.6
68873;BME280;55907;50.806;12.882;2023-05-01T04:32:40;974.8;;;5.3;73.1
68873;BME280;55907;50.806;12.882;2023-05-01T04:35:41;974.8;;;5.6;73.4
68873;BME280;55907;50.806;12.882;2023-05-01T04:38:43;974.8;;;5.7;72.9
68873;BME280;55907;50.806;12.882;2023-05-01T04:41:44;974.8;;;5.9;72.5
68873;BME280;55907;50.806;12.882;2023-05-01T04:44:46;974.8;;;6.0;72.1
68873;BME280;55907;50.806;12.882;2023-05-01T04:47:47;974.8;;;6.2;72.1
68873;BME280;55907;50.806;12.882;2023-05-01T04:50:49;974.7;;;6.4;70.1
68873;BME280;55907;50.806;12.882;2023-05-01T04:53:51;974.7;;;6.7;70.0
68873;BME280;55907;50.806;12.882;2023-05-01T04:56:52;974.8;;;7.2;68.2
68873;BME280;55907;50.806;12.882;2023-05-01T04:59:54;974.8;;;7.6;67.3
68873;BME280;55907;50.806;12.882;2023-05-01T05:02:55;974.8;;;8.2;62.4
68873;BME280;55907;50.806;12.882;2023-05-01T05:05:57;974.7;;;9.4;60.0
68873;BME280;55907;50.806;12.882;2023-05-01T05:08:58;974.6;;;10.6;56.5
68873;BME280;55907;50.806;12.882;2023-05-01T05:12:00;974.7;;;10.9;54.5
68873;BME280;55907;50.806;12.882;2023-05-01T05:18:03;974.7;;;10.9;54.9
68873;BME280;55907;50.806;12.882;2023-05-01T05:21:05;974.7;;;11.3;53.2
68873;BME280;55907;50.806;12.882;2023-05-01T05:24:06;974.7;;;11.7;52.2
68873;BME280;55907;50.806;12.882;2023-05-01T05:27:07;974.7;;;11.8;51.8
68873;BME280;55907;50.806;12.882;2023-05-01T05:30:10;974.7;;;12.1;51.0
68873;BME280;55907;50.806;12.882;2023-05-01T05:33:10;974.7;;;12.5;50.1
68873;BME280;55907;50.806;12.882;2023-05-01T05:36:12;974.6;;;13.1;48.6
68873;BME280;55907;50.806;12.882;2023-05-01T05:39:13;974.6;;;13.6;47.1
68873;BME280;55907;50.806;12.882;2023-05-01T05:42:15;974.6;;;14.0;46.2
68873;BME280;55907;50.806;12.882;2023-05-01T05:45:16;974.6;;;14.4;45.5
68873;BME280;55907;50.806;12.882;2023-05-01T05:48:17;974.6;;;14.7;44.4
68873;BME280;55907;50.806;12.882;2023-05-01T05:51:19;974.6;;;15.2;44.0
68873;BME280;55907;50.806;12.882;2023-05-01T05:54:20;974.5;;;15.5;42.8
68873;BME280;55907;50.806;12.882;2023-05-01T05:57:22;974.5;;;15.8;42.5
68873;BME280;55907;50.806;12.882;2023-05-01T06:00:23;974.5;;;15.8;42.2
68873;BME280;55907;50.806;12.882;2023-05-01T06:03:25;974.5;;;15.8;41.9
68873;BME280;55907;50.806;12.882;2023-05-01T06:06:27;974.5;;;16.2;40.8
68873;BME280;55907;50.806;12.882;2023-05-01T06:09:28;974.5;;;17.2;39.8
68873;BME280;55907;50.806;12.882;2023-05-01T06:12:29;974.4;;;18.0;37.7
68873;BME280;55907;50.806;12.882;2023-05-01T06:15:31;974.4;;;18.3;35.9
68873;BME280;55907;50.806;12.882;2023-05-01T06:18:32;974.5;;;18.3;34.9
68873;BME280;55907;50.806;12.882;2023-05-01T06:24:35;974.3;;;18.0;35.4
68873;BME280;55907;50.806;12.882;2023-05-01T06:27:36;974.3;;;17.8;35.9
68873;BME280;55907;50.806;12.882;2023-05-01T06:30:38;974.4;;;17.5;36.5
68873;BME280;55907;50.806;12.882;2023-05-01T06:33:39;974.3;;;17.4;37.1
68873;BME280;55907;50.806;12.882;2023-05-01T06:36:41;974.3;;;17.5;36.9
68873;BME280;55907;50.806;12.882;2023-05-01T06:39:42;974.3;;;17.7;35.8
68873;BME280;55907;50.806;12.882;2023-05-01T06:42:43;974.3;;;18.0;37.2
68873;BME280;55907;50.806;12.882;2023-05-01T06:45:45;974.2;;;18.0;36.2
68873;BME280;55907;50.806;12.882;2023-05-01T06:48:46;974.2;;;18.3;34.8
68873;BME280;55907;50.806;12.882;2023-05-01T06:51:48;974.2;;;18.5;34.3
68873;BME280;55907;50.806;12.882;2023-05-01T06:54:49;974.3;;;18.9;33.8
68873;BME280;55907;50.806;12.882;2023-05-01T06:57:50;974.2;;;19.3;34.2
68873;BME280;55907;50.806;12.882;2023-05-01T07:00:52;974.2;;;19.5;34.2
68873;BME280;55907;50.806;12.882;2023-05-01T07:03:53;974.2;;;19.5;33.3
68873;BME280;55907;50.806;12.882;2023-05-01T07:06:55;974.2;;;19.5;33.3
68873;BME280;55907;50.806;12.882;2023-05-01T07:09:56;974.2;;;19.8;33.5
68873;BME280;55907;50.806;12.882;2023-05-01T07:12:58;974.2;;;19.8;33.5
68873;BME280;55907;50.806;12.882;2023-05-01T07:15:59;974.2;;;20.2;33.4
68873;BME280;55907;50.806;12.882;2023-05-01T07:19:00;974.2;;;20.7;33.4
68873;BME280;55907;50.806;12.882;2023-05-01T07:22:02;974.0;;;22.1;32.1
68873;BME280;55907;50.806;12.882;2023-05-01T07:25:05;974.1;;;22.4;30.6
68873;BME280;55907;50.806;12.882;2023-05-01T07:28:04;974.1;;;22.4;30.3
68873;BME280;55907;50.806;12.882;2023-05-01T07:31:08;974.1;;;22.1;30.3
68873;BME280;55907;50.806;12.882;2023-05-01T07:34:07;974.0;;;21.7;30.9
68873;BME280;55907;50.806;12.882;2023-05-01T07:37:09;974.1;;;21.3;31.6
68873;BME280;55907;50.806;12.882;2023-05-01T07:40:10;974.1;;;20.7;31.9
68873;BME280;55907;50.806;12.882;2023-05-01T07:43:11;973.9;;;20.0;31.3
68873;BME280;55907;50.806;12.882;2023-05-01T07:46:13;974.0;;;19.5;32.2
68873;BME280;55907;50.806;12.882;2023-05-01T07:49:14;974.0;;;19.2;32.3
68873;BME280;55907;50.806;12.882;2023-05-01T07:52:16;973.9;;;18.9;32.7
68873;BME280;55907;50.806;12.882;2023-05-01T07:55:17;974.0;;;18.8;33.0
68873;BME280;55907;50.806;12.882;2023-05-01T07:58:18;973.9;;;18.8;33.0
68873;BME280;55907;50.806;12.882;2023-05-01T08:01:20;974.0;;;18.9;33.2
68873;BME280;55907;50.806;12.882;2023-05-01T08:04:21;973.9;;;18.8;33.1
68873;BME280;55907;50.806;12.882;2023-05-01T08:07:23;973.9;;;18.4;33.5
68873;BME280;55907;50.806;12.882;2023-05-01T08:10:24;973.8;;;18.2;33.6
68873;BME280;55907;50.806;12.882;2023-05-01T08:13:26;973.8;;;18.7;33.4
68873;BME280;55907;50.806;12.882;2023-05-01T08:16:27;973.8;;;18.9;32.9
68873;BME280;55907;50.806;12.882;2023-05-01T08:19:28;973.7;;;19.0;32.7
68873;BME280;55907;50.806;12.882;2023-05-01T08:22:30;973.7;;;18.8;32.2
68873;BME280;55907;50.806;12.882;2023-05-01T08:25:31;973.7;;;18.9;31.9
68873;BME280;55907;50.806;12.882;2023-05-01T08:28:33;973.7;;;19.2;31.7
68873;BME280;55907;50.806;12.882;2023-05-01T08:31:34;973.7;;;19.1;31.1
68873;BME280;55907;50.806;12.882;2023-05-01T08:34:36;973.8;;;19.8;31.2
68873;BME280;55907;50.806;12.882;2023-05-01T08:37:37;973.8;;;20.2;30.0
68873;BME280;55907;50.806;12.882;2023-05-01T08:40:40;973.8;;;20.7;29.7
68873;BME280;55907;50.806;12.882;2023-05-01T08:43:40;973.8;;;20.9;28.3
68873;BME280;55907;50.806;12.882;2023-05-01T08:46:45;973.8;;;21.2;27.6
68873;BME280;55907;50.806;12.882;2023-05-01T08:49:44;973.9;;;21.5;27.8
68873;BME280;55907;50.806;12.882;2023-05-01T08:52:45;973.7;;;21.7;27.3
68873;BME280;55907;50.806;12.882;2023-05-01T08:55:46;973.8;;;22.2;26.7
68873;BME280;55907;50.806;12.882;2023-05-01T08:58:48;973.7;;;22.0;26.3
68873;BME280;55907;50.806;12.882;2023-05-01T09:01:49;973.6;;;22.1;26.0
68873;BME280;55907;50.806;12.882;2023-05-01T09:04:50;973.7;;;21.5;26.6
68873;BME280;55907;50.806;12.882;2023-05-01T09:07:51;973.6;;;21.3;27.4
68873;BME280;55907;50.806;12.882;2023-05-01T09:10:53;973.5;;;21.4;27.9
68873;BME280;55907;50.806;12.882;2023-05-01T09:13:54;973.4;;;21.6;27.1
68873;BME280;55907;50.806;12.882;2023-05-01T09:16:55;973.4;;;22.2;27.3
68873;BME280;55907;50.806;12.882;2023-05-01T09:19:57;973.4;;;22.0;26.7
68873;BME280;55907;50.806;12.882;2023-05-01T09:22:58;973.4;;;21.6;27.5
68873;BME280;55907;50.806;12.882;2023-05-01T09:26:03;973.4;;;22.2;26.9
68873;BME280;55907;50.806;12.882;2023-05-01T09:29:01;973.4;;;22.3;26.7
68873;BME280;55907;50.806;12.882;2023-05-01T09:32:12;973.4;;;21.4;27.4
68873;BME280;55907;50.806;12.882;2023-05-01T09:35:09;973.3;;;21.0;28.4
68873;BME280;55907;50.806;12.882;2023-05-01T09:38:05;973.2;;;21.5;27.2
68873;BME280;55907;50.806;12.882;2023-05-01T09:41:07;973.2;;;21.2;27.5
68873;BME280;55907;50.806;12.882;2023-05-01T09:44:16;973.1;;;21.2;27.9
68873;BME280;55907;50.806;12.882;2023-05-01T09:47:09;973.1;;;21.7;27.5
68873;BME280;55907;50.806;12.882;2023-05-01T09:50:12;973.1;;;22.1;26.7
68873;BME280;55907;50.806;12.882;2023-05-01T09:53:12;973.1;;;22.4;26.0
68873;BME280;55907;50.806;12.882;2023-05-01T09:56:14;973.0;;;22.8;26.4
68873;BME280;55907;50.806;12.882;2023-05-01T09:59:16;973.0;;;22.7;26.2
68873;BME280;55907;50.806;12.882;2023-05-01T10:02:27;973.0;;;22.4;26.1
68873;BME280;55907;50.806;12.882;2023-05-01T10:05:18;972.9;;;22.0;26.8
68873;BME280;55907;50.806;12.882;2023-05-01T10:08:19;972.9;;;21.7;26.8
68873;BME280;55907;50.806;12.882;2023-05-01T10:11:21;972.9;;;21.6;26.7
68873;BME280;55907;50.806;12.882;2023-05-01T10:14:22;972.9;;;21.4;26.8
68873;BME280;55907;50.806;12.882;2023-05-01T10:17:23;972.9;;;21.8;26.1
68873;BME280;55907;50.806;12.882;2023-05-01T10:20:25;972.9;;;21.6;26.7
68873;BME280;55907;50.806;12.882;2023-05-01T10:23:26;972.8;;;21.4;26.3
68873;BME280;55907;50.806;12.882;2023-05-01T10:26:28;972.8;;;21.3;26.8
68873;BME280;55907;50.806;12.882;2023-05-01T10:29:30;972.8;;;21.3;27.4
68873;BME280;55907;50.806;12.882;2023-05-01T10:32:31;972.8;;;21.2;27.1
68873;BME280;55907;50.806;12.882;2023-05-01T10:35:35;972.7;;;21.5;27.7
68873;BME280;55907;50.806;12.882;2023-05-01T10:38:33;972.7;;;21.2;27.4
68873;BME280;55907;50.806;12.882;2023-05-01T10:44:36;972.6;;;21.0;27.2
68873;BME280;55907;50.806;12.882;2023-05-01T10:47:45;972.5;;;21.4;27.0
68873;BME280;55907;50.806;12.882;2023-05-01T10:53:41;972.4;;;21.9;25.3
68873;BME280;55907;50.806;12.882;2023-05-01T10:56:42;972.4;;;22.0;26.4
68873;BME280;55907;50.806;12.882;2023-05-01T11:02:44;972.3;;;22.4;27.4
68873;BME280;55907;50.806;12.882;2023-05-01T11:06:03;972.3;;;22.7;28.5
68873;BME280;55907;50.806;12.882;2023-05-01T11:08:47;972.3;;;22.6;26.6
68873;BME280;55907;50.806;12.882;2023-05-01T11:11:49;972.2;;;22.5;26.5
68873;BME280;55907;50.806;12.882;2023-05-01T11:15:01;972.1;;;22.5;29.3
68873;BME280;55907;50.806;12.882;2023-05-01T11:17:52;972.1;;;22.6;28.8
68873;BME280;55907;50.806;12.882;2023-05-01T11:20:53;972.0;;;22.8;26.6
68873;BME280;55907;50.806;12.882;2023-05-01T11:23:54;971.9;;;22.8;26.2
68873;BME280;55907;50.806;12.882;2023-05-01T11:29:58;971.8;;;22.5;25.5
68873;BME280;55907;50.806;12.882;2023-05-01T11:32:58;971.8;;;22.2;26.0
68873;BME280;55907;50.806;12.882;2023-05-01T11:36:00;971.7;;;21.7;27.7
68873;BME280;55907;50.806;12.882;2023-05-01T11:42:06;971.7;;;21.7;27.1
68873;BME280;55907;50.806;12.882;2023-05-01T11:45:04;971.6;;;22.0;27.7
68873;BME280;55907;50.806;12.882;2023-05-01T11:48:13;971.5;;;22.1;27.3
68873;BME280;55907;50.806;12.882;2023-05-01T11:51:11;971.5;;;22.5;27.2
68873;BME280;55907;50.806;12.882;2023-05-01T11:54:09;971.4;;;22.5;27.4
68873;BME280;55907;50.806;12.882;2023-05-01T11:57:10;971.5;;;22.4;27.2
68873;BME280;55907;50.806;12.882;2023-05-01T12:00:12;971.4;;;22.4;27.4
68873;BME280;55907;50.806;12.882;2023-05-01T12:03:13;971.4;;;22.4;27.1
68873;BME280;55907;50.806;12.882;2023-05-01T12:06:14;971.4;;;22.7;27.2
68873;BME280;55907;50.806;12.882;2023-05-01T12:09:16;971.3;;;22.9;26.8
68873;BME280;55907;50.806;12.882;2023-05-01T12:12:17;971.3;;;22.9;25.9
68873;BME280;55907;50.806;12.882;2023-05-01T12:15:18;971.3;;;22.6;26.6
68873;BME280;55907;50.806;12.882;2023-05-01T12:18:20;971.2;;;22.5;26.6
68873;BME280;55907;50.806;12.882;2023-05-01T12:21:21;971.2;;;22.6;26.8
68873;BME280;55907;50.806;12.882;2023-05-01T12:24:22;971.2;;;22.5;26.9
68873;BME280;55907;50.806;12.882;2023-05-01T12:27:23;971.2;;;22.6;27.1
68873;BME280;55907;50.806;12.882;2023-05-01T12:30:25;971.2;;;22.2;26.9
68873;BME280;55907;50.806;12.882;2023-05-01T12:33:26;971.2;;;22.0;27.9
68873;BME280;55907;50.806;12.882;2023-05-01T12:36:29;971.1;;;22.1;28.1
68873;BME280;55907;50.806;12.882;2023-05-01T12:39:35;971.1;;;22.0;27.8
68873;BME280;55907;50.806;12.882;2023-05-01T12:42:30;971.0;;;22.0;27.4
68873;BME280;55907;50.806;12.882;2023-05-01T12:45:37;970.9;;;21.9;28.0
68873;BME280;55907;50.806;12.882;2023-05-01T12:48:37;970.9;;;21.7;28.2
68873;BME280;55907;50.806;12.882;2023-05-01T12:51:35;970.9;;;21.5;29.1
68873;BME280;55907;50.806;12.882;2023-05-01T12:54:37;970.9;;;21.2;28.9
68873;BME280;55907;50.806;12.882;2023-05-01T12:57:51;970.9;;;21.0;30.1
68873;BME280;55907;50.806;12.882;2023-05-01T13:00:41;970.8;;;21.3;29.7
68873;BME280;55907;50.806;12.882;2023-05-01T13:03:42;970.8;;;21.7;28.6
68873;BME280;55907;50.806;12.882;2023-05-01T13:06:42;970.7;;;21.9;28.3
68873;BME280;55907;50.806;12.882;2023-05-01T13:09:51;970.6;;;21.8;28.5
68873;BME280;55907;50.806;12.882;2023-05-01T13:12:44;970.7;;;21.7;29.2
68873;BME280;55907;50.806;12.882;2023-05-01T13:15:46;970.6;;;21.8;29.1
68873;BME280;55907;50.806;12.882;2023-05-01T13:18:48;970.6;;;22.0;29.1
68873;BME280;55907;50.806;12.882;2023-05-01T13:21:49;970.5;;;22.2;28.9
68873;BME280;55907;50.806;12.882;2023-05-01T13:24:50;970.4;;;21.9;29.8
68873;BME280;55907;50.806;12.882;2023-05-01T13:27:52;970.5;;;21.3;29.5
68873;BME280;55907;50.806;12.882;2023-05-01T13:30:53;970.5;;;20.7;30.5
68873;BME280;55907;50.806;12.882;2023-05-01T13:33:57;970.5;;;20.5;31.2
68873;BME280;55907;50.806;12.882;2023-05-01T13:36:56;970.5;;;20.4;31.9
68873;BME280;55907;50.806;12.882;2023-05-01T13:39:57;970.5;;;20.1;32.7
68873;BME280;55907;50.806;12.882;2023-05-01T13:43:01;970.5;;;20.2;32.6
68873;BME280;55907;50.806;12.882;2023-05-01T13:46:00;970.5;;;20.0;33.0
68873;BME280;55907;50.806;12.882;2023-05-01T13:49:02;970.5;;;20.1;32.9
68873;BME280;55907;50.806;12.882;2023-05-01T13:52:03;970.5;;;20.0;33.1
68873;BME280;55907;50.806;12.882;2023-05-01T13:55:05;970.5;;;20.0;33.2
68873;BME280;55907;50.806;12.882;2023-05-01T13:58:06;970.5;;;20.1;33.6
68873;BME280;55907;50.806;12.882;2023-05-01T14:01:13;970.5;;;20.0;33.8
68873;BME280;55907;50.806;12.882;2023-05-01T14:04:09;970.5;;;19.9;34.2
68873;BME280;55907;50.806;12.882;2023-05-01T14:07:10;970.5;;;19.9;34.0
68873;BME280;55907;50.806;12.882;2023-05-01T14:10:12;970.4;;;19.6;34.3
68873;BME280;55907;50.806;12.882;2023-05-01T14:13:15;970.5;;;19.7;34.5
68873;BME280;55907;50.806;12.882;2023-05-01T14:16:22;970.4;;;19.7;34.2
68873;BME280;55907;50.806;12.882;2023-05-01T14:19:16;970.4;;;19.6;34.4
68873;BME280;55907;50.806;12.882;2023-05-01T14:22:17;970.6;;;19.4;34.8
68873;BME280;55907;50.806;12.882;2023-05-01T14:25:23;970.4;;;19.2;35.1
68873;BME280;55907;50.806;12.882;2023-05-01T14:28:20;970.4;;;19.2;35.0
68873;BME280;55907;50.806;12.882;2023-05-01T14:31:24;970.4;;;19.2;34.9
68873;BME280;55907;50.806;12.882;2023-05-01T14:34:23;970.5;;;19.1;35.0
68873;BME280;55907;50.806;12.882;2023-05-01T14:37:24;970.4;;;19.0;34.9
68873;BME280;55907;50.806;12.882;2023-05-01T14:40:26;970.3;;;19.0;35.0
68873;BME280;55907;50.806;12.882;2023-05-01T14:43:27;970.4;;;18.9;35.5
68873;BME280;55907;50.806;12.882;2023-05-01T14:46:30;970.4;;;18.9;35.6
68873;BME280;55907;50.806;12.882;2023-05-01T14:49:30;970.4;;;18.7;35.7
68873;BME280;55907;50.806;12.882;2023-05-01T14:52:32;970.3;;;18.8;36.0
68873;BME280;55907;50.806;12.882;2023-05-01T14:55:33;970.4;;;18.9;35.9
68873;BME280;55907;50.806;12.882;2023-05-01T14:58:34;970.3;;;18.7;36.1
68873;BME280;55907;50.806;12.882;2023-05-01T15:01:36;970.3;;;18.9;36.1
68873;BME280;55907;50.806;12.882;2023-05-01T15:04:37;970.4;;;18.7;36.4
68873;BME280;55907;50.806;12.882;2023-05-01T15:07:38;970.5;;;18.5;36.4
68873;BME280;55907;50.806;12.882;2023-05-01T15:10:40;970.4;;;18.4;37.0
68873;BME280;55907;50.806;12.882;2023-05-01T15:13:41;970.4;;;18.3;37.0
68873;BME280;55907;50.806;12.882;2023-05-01T15:16:43;970.4;;;18.3;37.2
68873;BME280;55907;50.806;12.882;2023-05-01T15:19:44;970.3;;;18.2;37.4
68873;BME280;55907;50.806;12.882;2023-05-01T15:22:46;970.3;;;18.3;37.5
68873;BME280;55907;50.806;12.882;2023-05-01T15:25:47;970.3;;;18.2;37.7
68873;BME280;55907;50.806;12.882;2023-05-01T15:28:48;970.3;;;18.1;38.0
68873;BME280;55907;50.806;12.882;2023-05-01T15:31:50;970.3;;;18.2;38.1
68873;BME280;55907;50.806;12.882;2023-05-01T15:34:51;970.3;;;18.3;38.3
68873;BME280;55907;50.806;12.882;2023-05-01T15:37:53;970.3;;;18.3;38.0
68873;BME280;55907;50.806;12.882;2023-05-01T15:40:54;970.2;;;18.2;38.0
68873;BME280;55907;50.806;12.882;2023-05-01T15:43:56;970.2;;;18.2;38.1
68873;BME280;55907;50.806;12.882;2023-05-01T15:46:57;970.2;;;18.2;38.6
68873;BME280;55907;50.806;12.882;2023-05-01T15:49:59;970.2;;;18.2;38.5
68873;BME280;55907;50.806;12.882;2023-05-01T15:53:00;970.2;;;18.1;38.6
68873;BME280;55907;50.806;12.882;2023-05-01T15:56:01;970.2;;;18.2;38.6
68873;BME280;55907;50.806;12.882;2023-05-01T15:59:04;970.1;;;18.1;38.6
68873;BME280;55907;50.806;12.882;2023-05-01T16:02:05;970.2;;;18.1;38.9
68873;BME280;55907;50.806;12.882;2023-05-01T16:05:06;970.2;;;18.1;38.8
68873;BME280;55907;50.806;12.882;2023-05-01T16:08:07;970.1;;;18.1;38.9
68873;BME280;55907;50.806;12.882;2023-05-01T16:11:09;970.1;;;18.0;39.1
68873;BME280;55907;50.806;12.882;2023-05-01T16:14:10;970.1;;;18.1;39.1
68873;BME280;55907;50.806;12.882;2023-05-01T16:17:11;970.1;;;18.1;39.1
68873;BME280;55907;50.806;12.882;2023-05-01T16:20:13;970.1;;;18.0;39.3
68873;BME280;55907;50.806;12.882;2023-05-01T16:23:14;970.1;;;18.0;39.4
68873;BME280;55907;50.806;12.882;2023-05-01T16:26:22;970.1;;;17.9;39.6
68873;BME280;55907;50.806;12.882;2023-05-01T16:29:17;970.1;;;18.0;39.5
68873;BME280;55907;50.806;12.882;2023-05-01T16:32:19;970.1;;;18.0;39.5
68873;BME280;55907;50.806;12.882;2023-05-01T16:35:25;970.0;;;17.9;39.7
68873;BME280;55907;50.806;12.882;2023-05-01T16:38:21;970.0;;;17.9;39.8
68873;BME280;55907;50.806;12.882;2023-05-01T16:41:23;970.1;;;17.9;40.0
68873;BME280;55907;50.806;12.882;2023-05-01T16:44:24;970.0;;;17.8;40.1
68873;BME280;55907;50.806;12.882;2023-05-01T16:47:26;970.1;;;17.8;40.3
68873;BME280;55907;50.806;12.882;2023-05-01T16:50:28;970.0;;;17.8;40.4
68873;BME280;55907;50.806;12.882;2023-05-01T16:53:29;970.1;;;17.8;40.4
68873;BME280;55907;50.806;12.882;2023-05-01T16:56:30;970.1;;;17.8;40.8
68873;BME280;55907;50.806;12.882;2023-05-01T16:59:32;970.1;;;17.6;40.8
68873;BME280;55907;50.806;12.882;2023-05-01T17:02:33;970.2;;;17.6;40.9
68873;BME280;55907;50.806;12.882;2023-05-01T17:05:34;970.1;;;17.5;41.3
68873;BME280;55907;50.806;12.882;2023-05-01T17:08:36;970.1;;;17.4;41.6
68873;BME280;55907;50.806;12.882;2023-05-01T17:11:37;970.2;;;17.5;41.3
68873;BME280;55907;50.806;12.882;2023-05-01T17:14:39;970.1;;;17.4;41.8
68873;BME280;55907;50.806;12.882;2023-05-01T17:17:40;970.1;;;17.4;41.8